Welcome to our Virtual Airline
Sign-in:

Flight MFC6721

  • Submitted By: Patrick Fabard
  • Departure Airport: (KPD)
  • Arrival Airport: Cape Pole SPB (Z71)
  • Aircraft: DHC2 BEAVERA (N001MM-AM)
  • Flight Time: 00.31.12
  • Date Submitted: 2018/12/07
  • Route: FOLLOW THE FP
  • Status: Accepted
Flight Details
Gross Revenue:
(5 load / $ 49.00 per unit
$ 245.00
Fuel Cost:
(42.1841 fuel used @ 5.1 / unit)
$ 215.14

Additional Log Information:

View Log

FS[09:28] ----- Flight Opened -----
FS[09:28] Cigar Box - 1.1.4.0
FS[09:28] FS: FSX
FS[09:28] FSUIPC: v4,947
FS[09:28] Flight Number: MFC6721
FS[09:28] FS Aircraft: DHC-2A N930AJ
FS[09:28] FS Model: DHC2
FS[09:28] FS Type: DeHavilland
FS[09:28] Departure: KPD
FS[09:28] Arrival: Z71
FS[09:28] Flight Level: 2000
FS[09:28] Flight Type: H
FS[09:28] Passengers: 5
FS[09:28] FOB: 568 lbs
FS[09:28] Gate: n/a
FS[09:28] Crash Detection: Disabled
FS[09:28] Crash Detection Aircraft: Disabled
FS[09:28] Engines: 1 Piston
FS[09:28] NOTE: Boarding has started
FS[09:28] Parking Brake: Engaged
FS[09:28] Landing Gear: Retracted
FS[09:28] Engine 1: Started
FS[09:28] Light Data: Beacon ON
FS[09:28] Main Door Closed
FS[09:28] COM1: 128.30
FS[09:28] COM2: 127.80
FS[09:28] Transponder: 6424
FS[09:28] NAV1: 113.70
FS[09:28] NAV2: 110.60
FS[09:28] ADF1: 284.0
FS[09:28] ADF2: 240.0
FS[09:28] Navigation Mode: NAV
FS[09:30] Light Data: Landing lights ON
FS[09:30] Light Data: Taxi lights ON
FS[09:30] Light Data: Strobe lights ON
FS[09:30] Flaps: Position 1
FS[09:30] Flaps: Position 2
FS[09:30] Parking Brake: Released
FS[09:30] NOTE: Taxi started
FS[09:31] NOTE: ----- TAKE OFF -----
FS[09:31] GS: 62 knots
FS[09:31] TAS: 63 knots
FS[09:31] IAS: 63 knots
FS[09:31] VS: 42 fpm
FS[09:31] FOB: 566 lbs
FS[09:31] Heading: 342°
FS[09:31] Pitch: 2°
FS[09:31] Bank: 2°
FS[09:31] Aircraft Weight: 4226,66 lbs
FS[09:31] Nearest Airport: KPB
FS[09:31] Distance: 0,26 miles
FS[09:31] Runway: ???
FS[09:31] Ground Surface: Water
FS[09:31] Ground Condition: Snow
FS[09:31] NOTE: Weather Report
FS[09:31] Wind Heading: 341°
FS[09:31] Wind Speed: 0 knots
FS[09:31] OAT: 15° C
FS[09:31] TAT: 15° C
FS[09:31] Precipitation: None
FS[09:31] Dew Point: 5° C
FS[09:31] Visibility: 62 miles
FS[09:31] METAR: KPDC 071415Z AUTO 00000KT 10SM OVC035 M12/M17 A3053 RMK AO2 T11171167KPDK 071353Z 33004KT 10SM BKN085 OVC110 06/M03 A3041 RMK AO2 SLP310 T00561028KPDT 071353Z 00000KT 10SM OVC016 M04/M06 A3029 RMK AO2 SLP268 T10391061KPDX 071353Z 11014G19KT 10SM SCT250 02/M05 A3015 RMK AO2 SLP209 T00221050
FS[09:31] NOTE: Climb started
FS[09:31] Autopilot: Engaged
FS[09:31] AGL: 85 ft
FS[09:31] AMSL: 85 ft
FS[09:31] View Mode: Virtual Cockpit
FS[09:31] Flaps: Position 1
FS[09:31] GS: 83 knots
FS[09:31] TAS: 84 knots
FS[09:31] IAS: 84 knots
FS[09:31] VS: 1017 fpm
FS[09:31] Flaps: Position 0
FS[09:31] GS: 83 knots
FS[09:31] TAS: 85 knots
FS[09:31] IAS: 84 knots
FS[09:31] VS: 1007 fpm
FS[09:34] NOTE: TOC reached
FS[09:34] NOTE: Cruise started
FS[09:34] GS: 106 knots
FS[09:34] TAS: 107 knots
FS[09:34] IAS: 104 knots
FS[09:34] VS: 197 fpm
FS[09:34] FOB: 556 lbs
FS[09:34] Heading: 174°
FS[09:34] Pitch: 2°
FS[09:34] Bank: 14°
FS[09:34] Aircraft Weight: 4216,39 lbs
FS[09:48] Recovery: Flight Saved
FS[09:48] Light Data: Landing lights OFF
FS[09:48] AGL: 1820 ft
FS[09:48] AMSL: 2007 ft
FS[09:48] Light Data: Taxi lights OFF
FS[09:51] NOTE: TOD reached
FS[09:51] NOTE: Descent started
FS[09:51] GS: 134 knots
FS[09:51] TAS: 137 knots
FS[09:51] IAS: 134 knots
FS[09:51] VS: -2372 fpm
FS[09:51] FOB: 498 lbs
FS[09:51] Heading: 257°
FS[09:51] Pitch: 8°
FS[09:51] Bank: -36°
FS[09:51] Aircraft Weight: 4158,81 lbs
FS[09:51] NOTE: On approach
FS[09:55] Flaps: Position 1
FS[09:55] GS: 122 knots
FS[09:55] TAS: 121 knots
FS[09:55] IAS: 121 knots
FS[09:55] VS: -884 fpm
FS[09:55] Flaps: Position 2
FS[09:55] GS: 120 knots
FS[09:55] TAS: 120 knots
FS[09:55] IAS: 119 knots
FS[09:55] VS: -780 fpm
FS[09:57] Flaps: Position 3
FS[09:57] GS: 83 knots
FS[09:57] TAS: 92 knots
FS[09:57] IAS: 92 knots
FS[09:57] VS: -419 fpm
FS[09:57] Autopilot: Disengaged
FS[09:57] AGL: 436 ft
FS[09:57] AMSL: 436 ft
FS[09:58] NOTE: ----- LANDED -----
FS[09:58] Landing Rate: -428,30 fpm
FS[09:58] GS: 46 knots
FS[09:58] TAS: 43 knots
FS[09:58] IAS: 44 knots
FS[09:58] VS: -426 fpm
FS[09:58] FOB: 475 lbs
FS[09:58] Heading: 106°
FS[09:58] Pitch: 7°
FS[09:58] Bank: 0°
FS[09:58] Aircraft Weight: 4135,77 lbs
FS[09:58] Nearest Airport: 2Z1
FS[09:58] Distance: 0,18 miles
FS[09:58] Runway: ???
FS[09:58] Ground Surface: Water
FS[09:58] Ground Condition: Snow
FS[09:58] NOTE: Weather Report
FS[09:58] Wind Heading: 0°
FS[09:58] Wind Speed: 7 knots
FS[09:58] OAT: 5° C
FS[09:58] TAT: 6° C
FS[09:58] Precipitation: None
FS[09:58] Dew Point: 1° C
FS[09:58] Visibility: 49 miles
FS[09:58] METAR: No METAR available for Z71.
FS[09:58] View Mode: Virtual Cockpit
FS[09:58] NOTE: Taxi started
FS[09:59] Parking Brake: Engaged
FS[09:59] NOTE: Arrived
FS[10:00] Gate: n/a
FS[10:00] NOTE: Flight Completed
FS[10:00] FS Aircraft: DHC-2A N930AJ
FS[10:00] FS Model: DHC2
FS[10:00] FS Type: DeHavilland
FS[10:00] FOB: 475 lbs
FS[10:00] Fuel Used: 93 lbs
FS[10:00] Flight Time: 00:31:12
FS[10:00] Flight Time (Dawn): 00:14:57
FS[10:00] Flight Time (Day): 00:16:15
FS[10:00] Flight Time (Dusk): 00:00:00
FS[10:00] Flight Time (Night): 00:00:00
FS[10:00] Total Landings: 1
FS[10:00] MaxSim Rate: 0x
FS[10:00] Cigar Box - 1.1.4.0
FS[10:00] ----- Flight Closed -----

Route Map